Time;durP1;ratioP1;P1;durP2;ratioP2;P2;SDS_P1;SDS_P2;PMS_P1;PMS_P2;Temp;Humidity;BMP_temperature;BMP_pressure;BME280_temperature;BME280_humidity;BME280_pressure;Samples;Min_cycle;Max_cycle;Signal;HPM_P1;HPM_P2
2021/01/27 00:00:19;;;;;;;1.55;1.45;;;4.60;99.90;;;;;;5056005;28;20167;-76
2021/01/27 00:02:45;;;;;;;0.52;0.52;;;4.70;99.90;;;;;;5038194;28;20607;-77
2021/01/27 00:05:15;;;;;;;0.30;0.30;;;4.60;99.90;;;;;;5038134;28;20228;-77
2021/01/27 00:07:40;;;;;;;3.20;1.75;;;4.60;99.90;;;;;;5055969;28;20704;-77
2021/01/27 00:10:07;;;;;;;0.30;0.30;;;4.60;99.90;;;;;;5055942;28;20168;-77
2021/01/27 00:12:34;;;;;;;0.20;0.20;;;4.30;99.90;;;;;;5055895;28;20618;-77
2021/01/27 00:14:59;;;;;;;1.02;0.90;;;4.20;99.90;;;;;;5055632;28;20183;-77
2021/01/27 00:17:26;;;;;;;0.28;0.28;;;4.30;99.90;;;;;;5037878;28;20189;-77
2021/01/27 00:19:52;;;;;;;0.63;0.63;;;4.20;99.90;;;;;;5055840;28;20614;-77
2021/01/27 00:22:17;;;;;;;1.80;0.93;;;4.30;99.90;;;;;;5037799;28;20256;-77
2021/01/27 00:24:43;;;;;;;0.82;0.82;;;4.00;99.90;;;;;;5037706;28;20178;-77
2021/01/27 00:27:08;;;;;;;0.28;0.28;;;4.00;99.90;;;;;;5055461;28;20286;-77
2021/01/27 00:29:34;;;;;;;0.32;0.32;;;4.10;99.90;;;;;;5055504;28;20209;-77
2021/01/27 00:31:59;;;;;;;0.20;0.20;;;4.20;99.90;;;;;;5055439;28;20191;-77
2021/01/27 00:34:25;;;;;;;0.20;0.20;;;4.20;99.90;;;;;;5037534;28;20171;-77
2021/01/27 00:36:51;;;;;;;0.20;0.20;;;4.20;99.90;;;;;;5037297;28;20310;-76
2021/01/27 00:39:18;;;;;;;0.43;0.43;;;4.20;99.90;;;;;;5036597;28;20167;-77
2021/01/27 00:41:44;;;;;;;1.80;1.67;;;4.20;99.90;;;;;;5055333;28;20178;-77
2021/01/27 00:44:10;;;;;;;0.95;0.95;;;4.10;99.90;;;;;;5055164;28;20246;-77
2021/01/27 00:46:36;;;;;;;0.40;0.40;;;4.30;99.90;;;;;;5054919;28;20243;-78
2021/01/27 00:49:02;;;;;;;0.40;0.40;;;4.30;99.90;;;;;;5055204;28;20194;-77
2021/01/27 00:51:28;;;;;;;0.30;0.30;;;4.20;99.90;;;;;;5037343;28;20611;-78
2021/01/27 00:53:54;;;;;;;1.75;0.57;;;4.20;99.90;;;;;;5055131;28;20206;-77
2021/01/27 00:56:21;;;;;;;2.15;0.95;;;4.10;99.90;;;;;;5055002;28;20191;-77
2021/01/27 00:58:50;;;;;;;0.57;0.57;;;4.00;99.90;;;;;;5055127;28;20156;-77
2021/01/27 01:01:15;;;;;;;7.75;0.93;;;3.90;99.90;;;;;;5054983;28;20163;-77
2021/01/27 01:03:41;;;;;;;0.22;0.22;;;3.80;99.90;;;;;;5054681;28;20186;-77
2021/01/27 01:06:07;;;;;;;0.20;0.20;;;3.80;99.90;;;;;;5054806;28;20215;-77
2021/01/27 01:08:32;;;;;;;0.30;0.30;;;3.70;99.90;;;;;;5054889;28;20250;-78
2021/01/27 01:11:00;;;;;;;0.70;0.70;;;3.80;99.90;;;;;;5054742;28;20170;-78
2021/01/27 01:13:28;;;;;;;0.32;0.32;;;3.80;99.90;;;;;;5054702;28;20170;-78
2021/01/27 01:15:54;;;;;;;0.82;0.82;;;3.80;99.90;;;;;;5054625;28;20191;-77
2021/01/27 01:18:20;;;;;;;0.20;0.20;;;3.80;99.90;;;;;;5054659;28;20575;-77
2021/01/27 01:20:47;;;;;;;0.70;0.40;;;3.60;99.90;;;;;;5054744;28;20193;-77
2021/01/27 01:23:14;;;;;;;0.30;0.30;;;3.80;99.90;;;;;;5054588;28;20171;-77
2021/01/27 01:25:40;;;;;;;0.38;0.38;;;3.70;99.90;;;;;;5054391;28;20279;-77
2021/01/27 01:28:07;;;;;;;0.95;0.95;;;3.80;99.90;;;;;;5054490;28;20174;-77
2021/01/27 01:30:34;;;;;;;2.70;1.40;;;3.50;99.90;;;;;;5054370;28;20162;-77
2021/01/27 01:33:13;;;;;;;0.32;0.32;;;3.50;99.90;;;;;;5036419;28;20163;-77
2021/01/27 01:35:39;;;;;;;0.30;0.30;;;3.30;99.90;;;;;;5054036;28;20187;-77
2021/01/27 01:38:05;;;;;;;0.43;0.43;;;3.40;99.90;;;;;;5054075;28;20306;-77
2021/01/27 01:40:34;;;;;;;0.25;0.25;;;3.40;99.90;;;;;;5054232;28;20191;-77
2021/01/27 01:43:23;;;;;;;2.35;0.95;;;3.40;99.90;;;;;;5054065;28;20167;-77
2021/01/27 01:45:55;;;;;;;0.28;0.28;;;3.30;99.90;;;;;;5054012;28;20203;-77
2021/01/27 01:48:48;;;;;;;0.40;0.40;;;3.30;99.90;;;;;;5054127;28;20231;-77
2021/01/27 01:51:39;;;;;;;0.30;0.30;;;3.20;99.90;;;;;;5053914;28;20171;-77
2021/01/27 01:54:39;;;;;;;1.65;1.27;;;3.30;99.90;;;;;;5036058;28;20171;-77
2021/01/27 01:57:13;;;;;;;3.53;1.55;;;3.40;99.90;;;;;;5035721;28;20190;-77
2021/01/27 01:59:44;;;;;;;0.43;0.43;;;3.50;99.90;;;;;;5053783;28;20158;-77
2021/01/27 02:02:10;;;;;;;0.30;0.30;;;3.40;99.90;;;;;;5053818;28;20669;-77
2021/01/27 02:04:51;;;;;;;0.30;0.30;;;3.50;99.90;;;;;;5053671;28;20174;-77
2021/01/27 02:07:17;;;;;;;0.20;0.20;;;3.60;99.90;;;;;;5035784;28;20222;-77
2021/01/27 02:09:42;;;;;;;0.45;0.45;;;3.60;99.90;;;;;;5035554;28;20186;-77
2021/01/27 02:12:35;;;;;;;0.30;0.30;;;3.60;99.90;;;;;;5053333;28;20281;-77
2021/01/27 02:15:28;;;;;;;0.20;0.20;;;3.60;99.90;;;;;;5053503;28;20182;-77
2021/01/27 02:18:11;;;;;;;0.20;0.20;;;3.40;99.90;;;;;;5053547;28;20175;-77
2021/01/27 02:20:46;;;;;;;0.20;0.20;;;3.40;99.90;;;;;;5053490;28;20532;-77
2021/01/27 02:23:46;;;;;;;0.25;0.25;;;3.50;99.90;;;;;;5053445;28;20250;-77
2021/01/27 02:26:27;;;;;;;0.43;0.43;;;3.60;99.90;;;;;;5035400;28;20214;-77
2021/01/27 02:29:30;;;;;;;1.27;1.05;;;3.60;99.90;;;;;;5035592;28;20174;-77
2021/01/27 02:32:35;;;;;;;0.28;0.28;;;3.70;99.90;;;;;;5053268;28;20167;-77
2021/01/27 02:35:19;;;;;;;0.20;0.20;;;3.70;99.90;;;;;;5017587;28;20199;-77
2021/01/27 02:38:09;;;;;;;0.20;0.20;;;3.50;99.90;;;;;;5053018;28;20246;-77
2021/01/27 02:41:08;;;;;;;0.20;0.20;;;3.60;99.90;;;;;;5053137;28;20638;-77
2021/01/27 02:43:41;;;;;;;0.20;0.20;;;3.70;99.90;;;;;;5035305;28;20175;-77
2021/01/27 02:46:20;;;;;;;1.13;0.95;;;3.70;99.90;;;;;;5034914;28;20223;-77
2021/01/27 02:48:58;;;;;;;0.57;0.57;;;3.60;99.90;;;;;;5035209;28;20163;-77
2021/01/27 02:51:31;;;;;;;0.20;0.20;;;3.70;99.90;;;;;;5035243;28;20171;-77
2021/01/27 02:54:08;;;;;;;0.20;0.20;;;3.70;99.90;;;;;;5053040;28;20248;-77
2021/01/27 02:56:41;;;;;;;0.20;0.20;;;3.80;99.90;;;;;;5035154;28;20193;-77
2021/01/27 02:59:21;;;;;;;0.30;0.30;;;3.70;99.90;;;;;;5052941;28;20155;-77
2021/01/27 03:01:58;;;;;;;0.20;0.20;;;3.50;99.90;;;;;;5052396;28;20186;-77
2021/01/27 03:04:31;;;;;;;0.30;0.30;;;3.50;99.90;;;;;;5052883;28;20661;-77
2021/01/27 03:06:58;;;;;;;0.20;0.20;;;3.50;99.90;;;;;;5052798;28;20310;-77
2021/01/27 03:09:33;;;;;;;0.47;0.47;;;3.60;99.90;;;;;;5052809;28;20163;-77
2021/01/27 03:11:59;;;;;;;0.20;0.20;;;3.60;99.90;;;;;;5034882;28;20194;-77
2021/01/27 03:14:24;;;;;;;0.20;0.20;;;3.60;99.90;;;;;;5034970;28;20209;-77
2021/01/27 03:17:05;;;;;;;0.20;0.20;;;3.70;99.90;;;;;;5052714;28;20187;-77
2021/01/27 03:19:37;;;;;;;0.32;0.32;;;3.60;99.90;;;;;;5052802;28;20155;-77
2021/01/27 03:22:09;;;;;;;0.38;0.38;;;3.60;99.90;;;;;;5034927;28;20645;-77
2021/01/27 03:24:42;;;;;;;0.30;0.30;;;3.50;99.90;;;;;;5034859;28;20258;-77
2021/01/27 03:27:21;;;;;;;0.20;0.20;;;3.60;99.90;;;;;;5052680;28;20705;-77
2021/01/27 03:29:56;;;;;;;0.25;0.25;;;3.70;99.90;;;;;;5034640;28;20624;-77
2021/01/27 03:32:34;;;;;;;0.20;0.20;;;3.60;99.90;;;;;;5052703;28;20155;-77
2021/01/27 03:35:25;;;;;;;0.20;0.20;;;3.70;99.90;;;;;;5034611;28;20696;-77
2021/01/27 03:37:58;;;;;;;0.20;0.20;;;3.60;99.90;;;;;;5034457;28;20569;-77
2021/01/27 03:40:25;;;;;;;0.20;0.20;;;3.60;99.90;;;;;;5052485;28;20228;-77
2021/01/27 03:43:09;;;;;;;0.10;0.10;;;3.60;99.90;;;;;;5052721;28;20155;-77
2021/01/27 03:45:40;;;;;;;0.20;0.20;;;3.70;99.90;;;;;;5052539;28;20666;-77
2021/01/27 03:48:15;;;;;;;0.20;0.20;;;3.70;99.90;;;;;;5052468;28;20170;-77
2021/01/27 03:50:42;;;;;;;0.20;0.20;;;3.70;99.90;;;;;;5052578;28;20159;-77
2021/01/27 03:53:14;;;;;;;0.28;0.28;;;3.80;99.90;;;;;;5052503;28;20162;-78
2021/01/27 03:55:48;;;;;;;0.20;0.20;;;3.60;99.90;;;;;;5034606;28;20670;-77
2021/01/27 03:58:24;;;;;;;0.32;0.32;;;3.80;99.90;;;;;;5052300;28;20325;-76
2021/01/27 04:00:51;;;;;;;0.73;0.73;;;3.70;99.90;;;;;;5052438;28;20567;-77
2021/01/27 04:03:21;;;;;;;0.55;0.55;;;3.60;99.90;;;;;;5034432;28;20515;-77
2021/01/27 04:05:48;;;;;;;0.68;0.68;;;3.70;99.90;;;;;;5034363;28;20706;-78
2021/01/27 04:08:14;;;;;;;0.20;0.20;;;3.80;99.90;;;;;;5034410;28;20182;-77
2021/01/27 04:10:40;;;;;;;0.20;0.20;;;3.80;99.90;;;;;;5052318;28;20654;-77
2021/01/27 04:13:06;;;;;;;0.20;0.20;;;3.70;99.90;;;;;;5052307;28;20164;-76
2021/01/27 04:15:32;;;;;;;0.30;0.30;;;3.90;99.90;;;;;;5055017;28;20238;-77
2021/01/27 04:17:58;;;;;;;0.20;0.20;;;3.80;99.90;;;;;;5055831;28;20171;-77
2021/01/27 04:20:24;;;;;;;0.30;0.30;;;3.70;99.90;;;;;;5056043;28;20189;-77
2021/01/27 04:22:50;;;;;;;0.30;0.30;;;3.90;99.90;;;;;;5055668;28;20155;-76
2021/01/27 04:25:16;;;;;;;0.52;0.50;;;3.80;99.90;;;;;;5055477;28;20283;-77
2021/01/27 04:27:42;;;;;;;0.32;0.32;;;3.60;99.90;;;;;;5037520;28;20717;-77
2021/01/27 04:30:10;;;;;;;0.17;0.17;;;3.50;99.90;;;;;;5055516;28;20623;-77
2021/01/27 04:32:36;;;;;;;0.70;0.70;;;3.70;99.90;;;;;;5037488;28;20531;-76
2021/01/27 04:35:04;;;;;;;0.45;0.45;;;3.80;99.90;;;;;;5055309;28;20260;-77
2021/01/27 04:37:29;;;;;;;0.50;0.50;;;3.70;99.90;;;;;;5055073;28;20231;-77
2021/01/27 04:39:55;;;;;;;0.40;0.40;;;3.60;99.90;;;;;;5055353;28;20159;-76
2021/01/27 04:42:26;;;;;;;0.30;0.30;;;3.70;99.90;;;;;;5037403;28;20167;-78
2021/01/27 04:44:53;;;;;;;0.57;0.47;;;3.70;99.90;;;;;;5037298;28;20579;-77
2021/01/27 04:47:51;;;;;;;0.20;0.20;;;3.60;99.90;;;;;;5055041;28;20210;-78
2021/01/27 04:50:58;;;;;;;0.30;0.30;;;3.60;99.90;;;;;;5054956;28;20174;-77
2021/01/27 04:53:31;;;;;;;0.32;0.32;;;3.60;99.90;;;;;;5049856;28;20194;-77
2021/01/27 04:56:20;;;;;;;0.20;0.20;;;3.60;99.90;;;;;;5054924;28;20191;-77
2021/01/27 04:58:55;;;;;;;0.20;0.20;;;3.50;99.90;;;;;;5055112;28;20191;-78
2021/01/27 05:02:00;;;;;;;0.20;0.20;;;3.50;99.90;;;;;;5036909;28;20261;-77
2021/01/27 05:05:01;;;;;;;0.13;0.13;;;3.60;99.90;;;;;;5023800;28;20179;-77
2021/01/27 05:07:45;;;;;;;0.40;0.40;;;3.70;99.90;;;;;;4938408;28;20234;-78
2021/01/27 05:10:15;;;;;;;0.85;0.85;;;3.80;99.90;;;;;;5029102;28;20581;-77
2021/01/27 05:12:53;;;;;;;0.20;0.20;;;3.70;99.90;;;;;;5054743;28;20163;-77
2021/01/27 05:15:19;;;;;;;0.35;0.35;;;3.60;99.90;;;;;;5054546;28;20189;-77
2021/01/27 05:17:47;;;;;;;0.45;0.45;;;3.80;99.90;;;;;;5054596;28;20627;-77
2021/01/27 05:20:14;;;;;;;1.30;1.08;;;3.60;99.90;;;;;;5054499;28;20159;-77
2021/01/27 05:22:40;;;;;;;0.40;0.40;;;3.50;99.90;;;;;;5054552;28;20159;-77
2021/01/27 05:25:12;;;;;;;0.30;0.30;;;3.60;99.90;;;;;;5036106;28;20191;-77
2021/01/27 05:27:39;;;;;;;0.50;0.50;;;3.70;99.90;;;;;;5054327;28;20198;-77
2021/01/27 05:30:23;;;;;;;0.20;0.20;;;3.70;99.90;;;;;;5054445;28;20198;-77
2021/01/27 05:32:55;;;;;;;0.43;0.43;;;3.60;99.90;;;;;;5054238;28;20159;-77
2021/01/27 05:35:29;;;;;;;0.20;0.20;;;3.50;99.90;;;;;;5054102;28;20206;-76
2021/01/27 05:37:57;;;;;;;0.10;0.10;;;3.60;99.90;;;;;;5053967;28;20225;-77
2021/01/27 05:40:36;;;;;;;0.20;0.20;;;3.80;99.90;;;;;;5053941;28;20653;-76
2021/01/27 05:43:25;;;;;;;0.30;0.30;;;3.80;99.90;;;;;;5053971;28;20152;-77
2021/01/27 05:45:51;;;;;;;0.43;0.43;;;3.70;99.90;;;;;;5053737;28;20274;-78
2021/01/27 05:48:34;;;;;;;0.30;0.30;;;3.60;99.90;;;;;;5053922;28;20155;-77
2021/01/27 05:51:05;;;;;;;0.10;0.10;;;3.60;99.90;;;;;;5067588;23;20157;-77
2021/01/27 05:53:32;;;;;;;0.60;0.60;;;3.60;99.90;;;;;;5074070;28;20170;-78
2021/01/27 05:56:09;;;;;;;0.65;0.65;;;3.60;99.90;;;;;;5074299;28;20186;-78
2021/01/27 05:58:40;;;;;;;0.20;0.20;;;3.70;99.90;;;;;;5074135;28;20237;-78
2021/01/27 06:01:26;;;;;;;0.30;0.30;;;3.80;99.90;;;;;;5056231;28;20224;-75
2021/01/27 06:04:00;;;;;;;0.30;0.30;;;3.70;99.90;;;;;;5074006;28;20169;-79
2021/01/27 06:06:33;;;;;;;0.20;0.20;;;3.60;99.90;;;;;;5073530;28;20708;-78
2021/01/27 06:09:01;;;;;;;0.15;0.15;;;3.70;99.90;;;;;;5074131;28;20679;-77
2021/01/27 06:11:27;;;;;;;0.25;0.25;;;3.60;99.90;;;;;;5073773;28;20212;-76
2021/01/27 06:14:08;;;;;;;6.13;0.65;;;3.70;99.90;;;;;;5073652;28;20162;-78
2021/01/27 06:16:45;;;;;;;0.40;0.40;;;3.80;99.90;;;;;;5055564;28;20568;-78
2021/01/27 06:19:19;;;;;;;0.80;0.80;;;3.90;99.90;;;;;;5073502;28;20150;-76
2021/01/27 06:22:04;;;;;;;0.20;0.20;;;3.90;99.90;;;;;;5073913;28;20171;-77
2021/01/27 06:24:44;;;;;;;0.20;0.20;;;3.90;99.90;;;;;;5073617;28;20257;-79
2021/01/27 06:27:25;;;;;;;0.20;0.20;;;3.90;99.90;;;;;;5073789;28;20209;-77
2021/01/27 06:30:10;;;;;;;2.85;0.47;;;3.80;99.90;;;;;;5073148;28;20186;-77
2021/01/27 06:33:01;;;;;;;0.20;0.20;;;3.90;99.90;;;;;;5073806;28;20666;-78
2021/01/27 06:35:38;;;;;;;0.43;0.43;;;4.00;99.90;;;;;;5073327;28;20654;-78
2021/01/27 06:38:32;;;;;;;0.32;0.32;;;3.80;99.90;;;;;;5072306;28;20561;-79
2021/01/27 06:41:14;;;;;;;0.10;0.10;;;3.80;99.90;;;;;;5072906;28;20187;-76
2021/01/27 06:43:47;;;;;;;4.38;1.05;;;3.80;99.90;;;;;;5072888;28;20205;-78
2021/01/27 06:46:45;;;;;;;0.20;0.20;;;3.70;99.90;;;;;;5054652;28;20210;-77
2021/01/27 06:49:31;;;;;;;0.30;0.30;;;3.80;99.90;;;;;;5051034;28;20183;-78
2021/01/27 06:52:22;;;;;;;0.10;0.10;;;3.70;99.90;;;;;;5072649;28;20279;-77
2021/01/27 06:55:05;;;;;;;0.45;0.45;;;3.80;99.90;;;;;;5072312;28;20216;-79
2021/01/27 06:57:44;;;;;;;0.60;0.60;;;3.80;99.90;;;;;;5072648;28;20527;-79
2021/01/27 07:00:28;;;;;;;0.30;0.30;;;3.90;99.90;;;;;;5072702;28;20180;-79
2021/01/27 07:03:25;;;;;;;0.20;0.20;;;4.00;99.90;;;;;;5072550;28;20151;-79
2021/01/27 07:06:24;;;;;;;0.50;0.50;;;4.10;99.90;;;;;;5072613;28;20320;-79
2021/01/27 07:09:10;;;;;;;0.32;0.32;;;4.00;99.90;;;;;;5072235;28;20163;-78
2021/01/27 07:12:00;;;;;;;0.38;0.38;;;4.00;99.90;;;;;;5054602;28;20243;-78
2021/01/27 07:14:28;;;;;;;0.70;0.70;;;4.00;99.90;;;;;;5072520;28;20188;-77
2021/01/27 07:17:00;;;;;;;0.55;0.55;;;4.00;99.90;;;;;;5073069;28;20607;-77
2021/01/27 07:19:40;;;;;;;0.13;0.13;;;4.10;99.90;;;;;;5053987;28;20162;-78
2021/01/27 07:22:10;;;;;;;0.22;0.22;;;4.00;99.90;;;;;;5072987;28;20197;-79
2021/01/27 07:24:49;;;;;;;2.08;1.92;;;4.00;99.90;;;;;;5072402;28;20223;-78
2021/01/27 07:27:20;;;;;;;0.30;0.30;;;4.00;99.90;;;;;;5072497;28;20201;-77
2021/01/27 07:29:57;;;;;;;2.00;1.15;;;4.00;99.90;;;;;;5072403;28;20163;-78
2021/01/27 07:32:33;;;;;;;0.20;0.20;;;4.00;99.90;;;;;;5072371;28;20230;-77
2021/01/27 07:35:13;;;;;;;0.30;0.30;;;4.20;99.90;;;;;;5071794;28;20193;-78
2021/01/27 07:37:50;;;;;;;3.75;0.85;;;4.20;99.90;;;;;;5072077;28;20158;-75
2021/01/27 07:40:37;;;;;;;0.75;0.75;;;4.20;99.90;;;;;;5072167;28;20162;-78
2021/01/27 07:43:18;;;;;;;0.90;0.90;;;4.20;99.90;;;;;;5054149;28;20166;-77
2021/01/27 07:45:51;;;;;;;0.30;0.30;;;4.40;99.90;;;;;;5072048;28;20232;-75
2021/01/27 07:48:52;;;;;;;0.20;0.20;;;4.30;99.90;;;;;;5073337;28;20499;-78
2021/01/27 07:51:23;;;;;;;0.30;0.30;;;4.30;99.90;;;;;;5075636;28;20217;-77
2021/01/27 07:54:07;;;;;;;0.20;0.20;;;4.20;99.90;;;;;;5075953;28;20269;-76
2021/01/27 07:56:42;;;;;;;0.20;0.20;;;4.40;99.90;;;;;;5077135;28;20195;-77
2021/01/27 07:59:17;;;;;;;0.20;0.20;;;4.50;99.90;;;;;;5055967;28;20193;-77
2021/01/27 08:02:04;;;;;;;0.57;0.57;;;4.60;99.90;;;;;;5055933;28;20549;-78
2021/01/27 08:04:48;;;;;;;1.45;0.57;;;4.60;99.90;;;;;;5056078;28;20174;-79
2021/01/27 08:07:26;;;;;;;0.47;0.47;;;4.70;99.90;;;;;;5055959;28;20601;-77
2021/01/27 08:09:53;;;;;;;0.30;0.30;;;4.50;99.90;;;;;;5055634;28;20167;-76
2021/01/27 08:12:31;;;;;;;0.30;0.30;;;4.30;99.90;;;;;;5055495;28;20155;-79
2021/01/27 08:15:07;;;;;;;0.43;0.43;;;4.40;99.90;;;;;;5054751;28;20222;-79
2021/01/27 08:17:54;;;;;;;0.25;0.25;;;4.50;99.90;;;;;;5055238;28;20580;-80
2021/01/27 08:20:31;;;;;;;0.40;0.40;;;4.70;99.90;;;;;;5055754;28;20163;-77
2021/01/27 08:23:01;;;;;;;0.50;0.50;;;4.60;99.90;;;;;;5056067;28;20579;-80
2021/01/27 08:25:51;;;;;;;0.57;0.57;;;4.50;99.90;;;;;;5055423;28;20229;-79
2021/01/27 08:28:22;;;;;;;0.70;0.70;;;4.30;99.90;;;;;;5055394;28;20211;-79
2021/01/27 08:31:07;;;;;;;0.30;0.30;;;4.40;99.90;;;;;;5055458;28;20177;-79
2021/01/27 08:33:56;;;;;;;3.10;1.85;;;4.50;99.90;;;;;;5037480;28;20171;-78
2021/01/27 08:36:33;;;;;;;1.27;1.10;;;4.80;99.90;;;;;;5055093;28;20264;-77
2021/01/27 08:39:00;;;;;;;0.73;0.73;;;4.80;99.90;;;;;;5055163;28;20163;-78
2021/01/27 08:41:56;;;;;;;0.25;0.25;;;4.90;99.90;;;;;;5055384;28;20530;-75
2021/01/27 08:44:22;;;;;;;1.70;0.95;;;4.90;99.90;;;;;;5055183;28;20239;-76
2021/01/27 08:46:48;;;;;;;0.20;0.20;;;4.70;99.90;;;;;;5054591;28;20210;-75
2021/01/27 08:49:55;;;;;;;1.67;1.27;;;4.80;99.90;;;;;;5054962;28;20167;-78
2021/01/27 08:52:21;;;;;;;0.55;0.55;;;4.80;99.90;;;;;;4993441;28;20698;-78
2021/01/27 08:54:50;;;;;;;0.20;0.20;;;4.80;99.90;;;;;;5044592;28;20230;-79
2021/01/27 08:57:31;;;;;;;0.73;0.50;;;4.80;99.90;;;;;;5054960;28;20170;-79
2021/01/27 09:00:06;;;;;;;0.52;0.52;;;4.70;99.90;;;;;;5054051;28;20178;-79
2021/01/27 09:02:38;;;;;;;0.40;0.40;;;4.70;99.90;;;;;;5054949;28;20165;-79
2021/01/27 09:05:26;;;;;;;0.30;0.30;;;5.00;99.90;;;;;;5054687;28;20221;-77
2021/01/27 09:07:56;;;;;;;0.32;0.32;;;5.10;99.90;;;;;;5043900;28;20632;-77
2021/01/27 09:10:47;;;;;;;0.45;0.45;;;4.80;99.90;;;;;;5054509;28;20208;-77
2021/01/27 09:13:22;;;;;;;0.75;0.68;;;4.80;99.90;;;;;;5054727;28;20148;-78
2021/01/27 09:16:16;;;;;;;0.47;0.47;;;4.80;99.90;;;;;;5054573;28;20194;-78
2021/01/27 09:18:44;;;;;;;1.90;0.70;;;4.90;99.90;;;;;;5054263;28;20419;-75
2021/01/27 09:21:15;;;;;;;0.70;0.70;;;5.00;99.90;;;;;;5054393;28;20529;-77
2021/01/27 09:23:43;;;;;;;0.20;0.20;;;5.20;99.90;;;;;;5054325;28;20650;-76
2021/01/27 09:26:30;;;;;;;0.77;0.77;;;5.20;99.90;;;;;;5054509;28;20234;-76
2021/01/27 09:29:15;;;;;;;0.55;0.55;;;5.20;99.90;;;;;;5054620;28;20159;-77
2021/01/27 09:31:41;;;;;;;0.70;0.70;;;5.30;99.90;;;;;;5054267;28;20273;-76
2021/01/27 09:34:33;;;;;;;0.20;0.20;;;5.50;99.90;;;;;;5054332;28;20160;-79
2021/01/27 09:37:03;;;;;;;0.63;0.63;;;5.30;99.90;;;;;;5051217;28;20281;-78
2021/01/27 09:39:33;;;;;;;0.52;0.52;;;5.40;99.90;;;;;;5054202;28;20152;-78
2021/01/27 09:42:01;;;;;;;0.20;0.20;;;5.40;99.90;;;;;;5054369;28;20159;-77
2021/01/27 09:44:36;;;;;;;2.67;1.10;;;5.50;99.90;;;;;;5054399;28;20228;-78
2021/01/27 09:47:13;;;;;;;0.57;0.57;;;5.60;99.90;;;;;;5053824;28;20586;-79
2021/01/27 09:50:05;;;;;;;0.22;0.22;;;5.70;99.90;;;;;;5053904;28;20159;-78
2021/01/27 09:52:33;;;;;;;0.73;0.73;;;5.80;99.90;;;;;;5051082;28;20234;-76
2021/01/27 09:55:11;;;;;;;0.30;0.30;;;5.80;99.90;;;;;;5053862;28;20187;-79
2021/01/27 09:57:39;;;;;;;0.77;0.77;;;5.80;99.90;;;;;;5053926;28;20274;-79
2021/01/27 10:00:08;;;;;;;1.00;1.00;;;5.80;99.90;;;;;;5053603;28;20166;-78
2021/01/27 10:02:35;;;;;;;1.00;1.00;;;5.80;99.90;;;;;;5053756;28;20155;-77
2021/01/27 10:05:03;;;;;;;1.02;0.75;;;5.80;99.90;;;;;;5053458;28;20183;-76
2021/01/27 10:07:36;;;;;;;1.48;1.38;;;5.70;99.90;;;;;;5053554;28;20344;-78
2021/01/27 10:10:08;;;;;;;0.30;0.30;;;5.80;99.90;;;;;;5055680;28;20170;-75
2021/01/27 10:12:35;;;;;;;2.50;1.40;;;5.90;99.90;;;;;;5034236;28;20163;-77
2021/01/27 10:15:30;;;;;;;0.98;0.98;;;5.80;99.90;;;;;;5063746;28;20190;-76
2021/01/27 10:18:22;;;;;;;0.82;0.82;;;5.90;99.90;;;;;;5072066;28;20162;-76
2021/01/27 10:20:48;;;;;;;0.45;0.45;;;5.80;99.90;;;;;;5068843;28;20179;-75
2021/01/27 10:23:34;;;;;;;0.95;0.95;;;5.90;99.90;;;;;;5065497;28;20623;-75
2021/01/27 10:26:32;;;;;;;0.77;0.77;;;6.00;99.90;;;;;;5071924;28;20653;-75
2021/01/27 10:29:18;;;;;;;1.05;1.05;;;6.00;99.90;;;;;;5069111;28;20243;-76
2021/01/27 10:31:51;;;;;;;0.38;0.38;;;6.10;99.90;;;;;;5068201;28;20175;-74
2021/01/27 10:34:42;;;;;;;0.70;0.70;;;5.90;99.90;;;;;;5064064;28;20217;-76
2021/01/27 10:37:48;;;;;;;0.63;0.57;;;5.80;99.90;;;;;;5059192;28;20546;-77
2021/01/27 10:40:29;;;;;;;1.65;0.60;;;6.00;99.90;;;;;;5065728;28;20177;-77
2021/01/27 10:42:58;;;;;;;2.58;2.38;;;5.90;99.90;;;;;;5072749;28;20196;-78
2021/01/27 10:45:31;;;;;;;0.90;0.85;;;5.80;99.90;;;;;;5072059;28;20269;-76
2021/01/27 10:48:12;;;;;;;0.90;0.75;;;5.90;99.90;;;;;;5065380;28;20576;-76
2021/01/27 10:50:47;;;;;;;0.70;0.70;;;5.70;99.90;;;;;;5060762;28;20640;-79
2021/01/27 10:53:17;;;;;;;3.38;0.75;;;5.60;99.90;;;;;;5092572;28;20221;-78
2021/01/27 10:55:46;;;;;;;0.75;0.75;;;5.50;99.90;;;;;;5079809;28;20225;-77
2021/01/27 10:58:15;;;;;;;1.58;1.50;;;5.50;99.90;;;;;;5072159;28;20656;-79
2021/01/27 11:00:41;;;;;;;0.98;0.98;;;5.70;99.90;;;;;;5072145;28;20159;-77
2021/01/27 11:03:08;;;;;;;2.85;1.27;;;5.80;99.90;;;;;;5071584;28;20158;-77
2021/01/27 11:05:34;;;;;;;2.40;1.05;;;6.00;99.90;;;;;;5054888;28;20217;-76
2021/01/27 11:08:02;;;;;;;0.82;0.80;;;6.00;99.90;;;;;;5052125;28;20245;-77
2021/01/27 11:10:28;;;;;;;0.95;0.90;;;6.20;99.90;;;;;;5052045;28;20185;-78
2021/01/27 11:12:54;;;;;;;1.25;0.65;;;6.20;99.90;;;;;;5052219;28;20207;-77
2021/01/27 11:15:20;;;;;;;0.52;0.52;;;6.10;99.90;;;;;;5051584;28;20179;-77
2021/01/27 11:17:48;;;;;;;1.13;1.05;;;6.40;99.90;;;;;;5051683;28;20167;-78
2021/01/27 11:20:14;;;;;;;0.55;0.55;;;6.40;99.90;;;;;;5051595;28;20646;-78
2021/01/27 11:22:40;;;;;;;2.38;1.30;;;6.30;99.90;;;;;;5051450;28;20213;-77
2021/01/27 11:25:06;;;;;;;2.83;2.38;;;6.20;99.90;;;;;;5056191;28;20561;-76
2021/01/27 11:27:32;;;;;;;1.08;1.08;;;6.20;99.90;;;;;;5055912;28;20554;-78
2021/01/27 11:29:57;;;;;;;1.35;1.15;;;6.30;99.90;;;;;;5055641;28;20166;-77
2021/01/27 11:32:23;;;;;;;2.40;1.83;;;6.40;99.90;;;;;;5037923;28;20578;-77
2021/01/27 11:34:48;;;;;;;0.95;0.80;;;6.40;99.90;;;;;;5066316;28;20174;-78
2021/01/27 11:37:14;;;;;;;1.05;0.88;;;6.40;99.90;;;;;;5075955;28;20174;-78
2021/01/27 11:39:40;;;;;;;1.10;1.10;;;6.40;99.90;;;;;;5057727;28;20158;-79
2021/01/27 11:42:06;;;;;;;0.95;0.95;;;6.40;99.90;;;;;;5076154;28;20166;-78
2021/01/27 11:44:31;;;;;;;0.80;0.80;;;6.60;99.90;;;;;;5076328;28;20702;-75
2021/01/27 11:46:57;;;;;;;0.55;0.55;;;6.50;99.90;;;;;;5057858;28;20485;-77
2021/01/27 11:49:23;;;;;;;0.70;0.70;;;6.50;99.90;;;;;;5057618;28;20254;-77
2021/01/27 11:51:49;;;;;;;0.22;0.22;;;6.40;99.90;;;;;;5057870;28;20218;-79
2021/01/27 11:54:15;;;;;;;1.75;1.65;;;6.60;99.90;;;;;;5076126;28;20173;-77
2021/01/27 11:56:41;;;;;;;0.40;0.40;;;6.70;99.90;;;;;;5075786;28;20182;-77
2021/01/27 11:59:07;;;;;;;3.03;2.33;;;6.60;99.90;;;;;;5076156;28;20159;-77
2021/01/27 12:01:35;;;;;;;0.50;0.50;;;6.60;99.90;;;;;;5075580;28;20532;-76
2021/01/27 12:04:04;;;;;;;1.00;0.73;;;6.70;99.90;;;;;;5075266;28;20175;-78
2021/01/27 12:06:30;;;;;;;1.17;1.05;;;6.70;99.90;;;;;;5075274;28;20348;-78
2021/01/27 12:08:56;;;;;;;1.70;1.60;;;6.80;99.90;;;;;;5075692;28;20190;-79
2021/01/27 12:11:21;;;;;;;0.35;0.35;;;6.80;99.90;;;;;;5075585;28;20166;-79
2021/01/27 12:13:47;;;;;;;0.60;0.60;;;6.80;99.90;;;;;;5060180;28;20228;-78
2021/01/27 12:16:13;;;;;;;0.60;0.60;;;6.70;99.90;;;;;;5055397;28;20532;-78
2021/01/27 12:18:39;;;;;;;1.00;1.00;;;6.60;99.90;;;;;;5054060;28;20232;-78
2021/01/27 12:21:05;;;;;;;1.73;1.63;;;6.50;99.90;;;;;;5055378;28;20516;-75
2021/01/27 12:23:30;;;;;;;2.88;1.60;;;6.40;99.90;;;;;;5037396;28;20179;-79
2021/01/27 12:25:56;;;;;;;0.45;0.45;;;6.60;99.90;;;;;;5054719;28;20191;-75
2021/01/27 12:28:21;;;;;;;0.80;0.80;;;6.80;99.90;;;;;;5055303;28;20171;-78
2021/01/27 12:30:47;;;;;;;1.27;1.15;;;6.70;99.90;;;;;;5055372;28;20523;-79
2021/01/27 12:33:12;;;;;;;1.63;1.48;;;6.70;99.90;;;;;;5055065;28;20160;-78
2021/01/27 12:35:39;;;;;;;1.40;1.05;;;6.90;99.90;;;;;;5053287;28;20597;-78
2021/01/27 12:38:04;;;;;;;3.42;1.35;;;6.80;99.90;;;;;;5055068;28;20171;-78
2021/01/27 12:40:30;;;;;;;1.70;0.60;;;6.90;99.90;;;;;;5055316;28;20167;-75
2021/01/27 12:42:56;;;;;;;0.85;0.85;;;7.00;99.90;;;;;;5054872;28;20170;-79
2021/01/27 12:45:27;;;;;;;1.23;1.20;;;7.00;99.90;;;;;;5054460;28;20187;-77
2021/01/27 12:47:53;;;;;;;1.65;1.13;;;6.90;99.90;;;;;;5053573;28;20207;-79
2021/01/27 12:50:20;;;;;;;0.77;0.77;;;7.00;99.90;;;;;;5054810;28;20172;-79
2021/01/27 12:52:46;;;;;;;0.85;0.85;;;6.80;99.90;;;;;;5053765;28;20223;-77
2021/01/27 12:55:14;;;;;;;4.47;1.33;;;6.50;99.90;;;;;;5058111;28;20195;-79
2021/01/27 12:57:42;;;;;;;1.00;1.00;;;6.80;99.90;;;;;;5057812;28;20203;-78
2021/01/27 13:00:21;;;;;;;2.40;1.23;;;7.00;99.90;;;;;;5054403;28;20163;-78
2021/01/27 13:02:48;;;;;;;1.00;1.00;;;7.10;99.90;;;;;;5054037;28;20563;-79
2021/01/27 13:05:15;;;;;;;0.35;0.35;;;7.20;99.90;;;;;;5057919;28;20190;-75
2021/01/27 13:07:41;;;;;;;0.73;0.73;;;7.40;99.90;;;;;;5054095;28;20603;-80
2021/01/27 13:10:08;;;;;;;1.65;1.55;;;7.30;99.90;;;;;;5053867;28;20265;-78
2021/01/27 13:12:35;;;;;;;2.53;2.42;;;7.40;99.90;;;;;;5054152;28;20556;-79
2021/01/27 13:15:03;;;;;;;0.95;0.95;;;7.50;99.90;;;;;;5035847;28;20289;-77
2021/01/27 13:17:29;;;;;;;2.13;2.03;;;7.40;99.90;;;;;;5053957;28;20177;-78
2021/01/27 13:19:54;;;;;;;3.08;2.00;;;7.40;99.90;;;;;;5053682;28;20159;-76
2021/01/27 13:22:20;;;;;;;2.55;2.35;;;7.50;99.90;;;;;;5053938;28;20508;-78
2021/01/27 13:24:45;;;;;;;1.73;1.63;;;7.40;99.90;;;;;;5053799;28;20171;-79
2021/01/27 13:27:11;;;;;;;6.63;1.35;;;7.40;99.90;;;;;;5054137;28;20407;-76
2021/01/27 13:29:37;;;;;;;1.30;1.30;;;7.60;99.90;;;;;;5054185;28;20159;-77
2021/01/27 13:32:03;;;;;;;1.58;1.42;;;7.60;99.90;;;;;;5054139;28;20643;-77